createdAt,value
2019-01-16T00:02:17.279Z,16.70
2019-01-16T00:05:02.453Z,16.70
2019-01-16T00:07:39.052Z,16.70
2019-01-16T00:10:26.184Z,16.70
2019-01-16T00:13:13.254Z,16.70
2019-01-16T00:15:48.246Z,16.70
2019-01-16T00:18:35.651Z,16.70
2019-01-16T00:21:21.410Z,16.70
2019-01-16T00:24:17.368Z,16.70
2019-01-16T00:27:07.553Z,16.70
2019-01-16T00:29:54.773Z,16.70
2019-01-16T00:32:46.495Z,16.70
2019-01-16T00:35:32.085Z,16.70
2019-01-16T00:38:21.859Z,16.70
2019-01-16T00:41:06.652Z,16.70
2019-01-16T00:43:44.271Z,16.70
2019-01-16T00:46:30.125Z,16.70
2019-01-16T00:49:15.520Z,16.70
2019-01-16T00:52:17.718Z,16.70
2019-01-16T00:55:03.835Z,16.70
2019-01-16T00:57:43.179Z,16.70
2019-01-16T01:00:34.903Z,16.70
2019-01-16T01:03:31.477Z,16.70
2019-01-16T01:06:17.235Z,16.70
2019-01-16T01:09:07.338Z,16.70
2019-01-16T01:12:00.448Z,16.70
2019-01-16T01:14:51.020Z,16.70
2019-01-16T01:17:32.831Z,16.70
2019-01-16T01:20:38.303Z,16.70
2019-01-16T01:23:34.972Z,16.70
2019-01-16T01:26:20.643Z,16.60
2019-01-16T01:29:25.820Z,16.60
2019-01-16T01:32:08.644Z,16.70
2019-01-16T01:35:01.788Z,16.60
2019-01-16T01:37:52.019Z,16.70
2019-01-16T01:40:37.887Z,16.60
2019-01-16T01:43:30.729Z,16.60
2019-01-16T01:46:20.827Z,16.60
2019-01-16T01:49:10.403Z,16.60
2019-01-16T01:52:01.859Z,16.60
2019-01-16T01:54:48.879Z,16.60
2019-01-16T01:57:35.703Z,16.60
2019-01-16T02:00:16.823Z,16.60
2019-01-16T02:02:58.175Z,16.60
2019-01-16T02:05:40.513Z,16.60
2019-01-16T02:08:26.215Z,16.60
2019-01-16T02:11:16.060Z,16.60
2019-01-16T02:13:59.659Z,16.60
2019-01-16T02:16:38.475Z,16.60
2019-01-16T02:19:19.158Z,16.60
2019-01-16T02:22:21.158Z,16.60
2019-01-16T02:25:16.519Z,16.60
2019-01-16T02:28:09.887Z,16.60
2019-01-16T02:30:59.595Z,16.60
2019-01-16T02:33:41.210Z,16.60
2019-01-16T02:36:46.487Z,16.60
2019-01-16T02:39:33.018Z,16.60
2019-01-16T02:42:12.864Z,16.60
2019-01-16T02:44:55.688Z,16.60
2019-01-16T02:47:36.729Z,16.50
2019-01-16T02:50:22.837Z,16.60
2019-01-16T02:53:08.682Z,16.60
2019-01-16T02:56:04.868Z,16.60
2019-01-16T02:58:41.551Z,16.60
2019-01-16T03:01:27.408Z,16.60
2019-01-16T03:04:03.613Z,16.60
2019-01-16T03:06:42.498Z,16.60
2019-01-16T03:09:28.425Z,16.60
2019-01-16T03:12:14.111Z,16.60
2019-01-16T03:14:59.661Z,16.60
2019-01-16T03:17:52.645Z,16.60
2019-01-16T03:20:39.751Z,16.60
2019-01-16T03:23:23.069Z,16.60
2019-01-16T03:26:13.271Z,16.60
2019-01-16T03:28:59.167Z,16.60
2019-01-16T03:31:34.194Z,16.60
2019-01-16T03:34:24.712Z,16.60
2019-01-16T03:37:11.751Z,16.60
2019-01-16T03:39:58.688Z,16.60
2019-01-16T03:42:51.783Z,16.60
2019-01-16T03:45:35.716Z,16.60
2019-01-16T03:48:20.951Z,16.60
2019-01-16T03:50:58.859Z,16.50
2019-01-16T03:53:44.780Z,16.60
2019-01-16T03:56:30.444Z,16.60
2019-01-16T03:59:20.331Z,16.60
2019-01-16T04:02:05.803Z,16.60
2019-01-16T04:04:58.951Z,16.50
2019-01-16T04:07:49.075Z,16.50
2019-01-16T04:10:34.650Z,16.50
2019-01-16T04:13:20.297Z,16.50
2019-01-16T04:16:04.693Z,16.50
2019-01-16T04:18:50.806Z,16.50
2019-01-16T04:21:25.032Z,16.50
2019-01-16T04:24:11.036Z,16.50
2019-01-16T04:26:58.432Z,16.50
2019-01-16T04:29:44.157Z,16.50
2019-01-16T04:32:40.304Z,16.50
2019-01-16T04:35:26.103Z,16.50
2019-01-16T04:38:06.759Z,16.50
2019-01-16T04:40:44.760Z,16.50
2019-01-16T04:43:34.719Z,16.50
2019-01-16T04:46:26.035Z,16.50
2019-01-16T04:49:16.416Z,16.50
2019-01-16T04:52:01.064Z,16.50
2019-01-16T04:54:46.967Z,16.50
2019-01-16T04:57:39.659Z,16.50
2019-01-16T05:00:35.285Z,16.50
2019-01-16T05:03:20.813Z,16.50
2019-01-16T05:06:26.215Z,16.50
2019-01-16T05:09:11.865Z,16.50
2019-01-16T05:11:57.412Z,16.50
2019-01-16T05:14:43.464Z,16.50
2019-01-16T05:17:35.187Z,16.50
2019-01-16T05:20:28.623Z,16.50
2019-01-16T05:23:18.382Z,16.50
2019-01-16T05:26:17.587Z,16.50
2019-01-16T05:28:59.245Z,16.50
2019-01-16T05:31:55.091Z,16.50
2019-01-16T05:34:47.015Z,16.50
2019-01-16T05:37:35.245Z,16.50
2019-01-16T05:40:20.240Z,16.50
2019-01-16T05:43:00.916Z,16.50
2019-01-16T05:45:53.854Z,16.50
2019-01-16T05:48:29.092Z,16.50
2019-01-16T05:51:14.622Z,16.50
2019-01-16T05:54:04.617Z,16.50
2019-01-16T05:57:00.815Z,16.50
2019-01-16T05:59:44.425Z,16.50
2019-01-16T06:02:34.828Z,16.50
2019-01-16T06:05:30.909Z,16.50
2019-01-16T06:08:06.307Z,16.50
2019-01-16T06:10:51.834Z,16.50
2019-01-16T06:13:36.560Z,16.50
2019-01-16T06:16:26.407Z,16.50
2019-01-16T06:19:12.386Z,16.50
2019-01-16T06:22:10.404Z,16.50
2019-01-16T06:24:57.565Z,16.50
2019-01-16T06:27:43.371Z,16.50
2019-01-16T06:30:24.663Z,16.50
2019-01-16T06:33:10.606Z,16.50
2019-01-16T06:35:56.447Z,16.50
2019-01-16T06:38:49.248Z,16.50
2019-01-16T06:41:44.315Z,16.40
2019-01-16T06:44:40.380Z,16.50
2019-01-16T06:47:39.289Z,16.40
2019-01-16T06:50:41.567Z,16.40
2019-01-16T06:53:27.334Z,16.40
2019-01-16T06:56:13.122Z,16.40
2019-01-16T06:59:15.447Z,16.40
2019-01-16T07:02:14.214Z,16.40
2019-01-16T07:05:01.330Z,16.40
2019-01-16T07:07:39.821Z,16.40
2019-01-16T07:10:15.874Z,16.40
2019-01-16T07:13:01.606Z,16.40
2019-01-16T07:15:57.938Z,16.40
2019-01-16T07:18:40.884Z,16.40
2019-01-16T07:21:35.872Z,16.50
2019-01-16T07:24:15.755Z,16.40
2019-01-16T07:27:10.255Z,16.40
2019-01-16T07:30:00.932Z,16.40
2019-01-16T07:32:53.565Z,16.40
2019-01-16T07:35:39.543Z,16.40
2019-01-16T07:38:25.427Z,16.40
2019-01-16T07:41:15.250Z,16.40
2019-01-16T07:44:17.127Z,16.40
2019-01-16T07:46:57.174Z,16.40
2019-01-16T07:49:42.699Z,16.40
2019-01-16T07:52:28.207Z,16.40
2019-01-16T07:55:23.880Z,16.40
2019-01-16T07:58:05.663Z,16.40
2019-01-16T08:00:43.373Z,16.40
2019-01-16T08:03:39.338Z,16.40
2019-01-16T08:06:35.231Z,16.40
2019-01-16T08:09:31.838Z,16.40
2019-01-16T08:12:17.302Z,16.40
2019-01-16T08:15:03.367Z,16.40
2019-01-16T08:17:55.012Z,16.40
2019-01-16T08:20:57.009Z,16.40
2019-01-16T08:23:50.443Z,16.40
2019-01-16T08:26:37.815Z,16.40
2019-01-16T08:29:34.230Z,16.40
2019-01-16T08:32:15.082Z,16.40
2019-01-16T08:35:01.189Z,16.40
2019-01-16T08:37:46.727Z,16.40
2019-01-16T08:40:36.590Z,16.40
2019-01-16T08:43:24.208Z,16.40
2019-01-16T08:46:05.278Z,16.40
2019-01-16T08:49:07.481Z,16.40
2019-01-16T08:52:00.681Z,16.40
2019-01-16T08:54:53.644Z,16.40
2019-01-16T08:57:43.842Z,16.40
2019-01-16T09:00:41.140Z,16.40
2019-01-16T09:03:28.333Z,16.40
2019-01-16T09:06:23.345Z,16.40
2019-01-16T09:09:09.107Z,16.40
2019-01-16T09:11:52.613Z,16.40
2019-01-16T09:14:38.085Z,16.30
2019-01-16T09:17:34.301Z,16.30
2019-01-16T09:20:27.187Z,16.40
2019-01-16T09:23:19.804Z,16.30
2019-01-16T09:26:05.271Z,16.30
2019-01-16T09:31:02.740Z,16.30
2019-01-16T09:33:48.528Z,16.40
2019-01-16T09:36:50.922Z,16.30
2019-01-16T09:39:42.360Z,16.30
2019-01-16T09:42:32.500Z,16.30
2019-01-16T09:45:26.885Z,16.30
2019-01-16T09:48:11.348Z,16.30
2019-01-16T09:50:58.101Z,16.30
2019-01-16T09:53:43.871Z,16.30
2019-01-16T09:56:43.003Z,16.30
2019-01-16T09:59:30.096Z,16.30
2019-01-16T10:02:23.054Z,16.30
2019-01-16T10:05:22.188Z,16.30
2019-01-16T10:08:09.288Z,16.40
2019-01-16T10:10:52.568Z,16.40
2019-01-16T10:13:51.515Z,16.30
2019-01-16T10:16:29.697Z,16.30
2019-01-16T10:19:10.801Z,16.30
2019-01-16T10:22:09.652Z,16.30
2019-01-16T10:25:05.641Z,16.30
2019-01-16T10:27:52.788Z,16.30
2019-01-16T10:30:51.640Z,16.30
2019-01-16T10:33:38.685Z,16.30
2019-01-16T10:36:24.476Z,16.30
2019-01-16T10:39:11.648Z,16.30
2019-01-16T10:42:03.820Z,16.30
2019-01-16T10:44:40.639Z,16.30
2019-01-16T10:47:18.977Z,16.30
2019-01-16T10:50:24.151Z,16.30
2019-01-16T11:05:44.921Z,16.40
2019-01-16T11:08:26.759Z,16.80
2019-01-16T11:11:32.437Z,16.60
2019-01-16T11:14:18.030Z,16.50
2019-01-16T11:17:03.793Z,16.40
2019-01-16T11:20:00.717Z,16.40
2019-01-16T11:22:46.380Z,16.40
2019-01-16T11:25:32.410Z,16.30
2019-01-16T11:28:19.707Z,16.30
2019-01-16T11:31:09.908Z,16.30
2019-01-16T11:34:00.543Z,16.30
2019-01-16T11:36:46.558Z,16.30
2019-01-16T11:39:48.792Z,16.30
2019-01-16T11:42:50.819Z,16.30
2019-01-16T11:45:40.585Z,16.30
2019-01-16T11:48:45.787Z,16.20
2019-01-16T11:54:53.851Z,16.30
2019-01-16T11:57:49.751Z,16.30
2019-01-16T12:00:42.579Z,16.30
2019-01-16T12:03:32.569Z,16.30
2019-01-16T12:06:16.416Z,16.30
2019-01-16T12:09:03.325Z,16.30
2019-01-16T12:11:48.733Z,16.30
2019-01-16T12:14:41.764Z,16.30
2019-01-16T12:17:27.333Z,16.30
2019-01-16T12:20:26.613Z,16.30
2019-01-16T12:23:06.314Z,16.30
2019-01-16T12:25:46.779Z,16.30
2019-01-16T12:28:24.591Z,16.30
2019-01-16T12:31:14.639Z,16.30
2019-01-16T12:34:02.619Z,16.30
2019-01-16T12:36:48.604Z,16.30
2019-01-16T12:39:34.254Z,16.30
2019-01-16T12:42:27.415Z,16.30
2019-01-16T12:45:05.656Z,16.30
2019-01-16T12:47:52.797Z,16.20
2019-01-16T12:50:45.543Z,16.30
2019-01-16T12:53:30.493Z,16.30
2019-01-16T12:56:16.524Z,16.30
2019-01-16T12:59:05.896Z,16.30
2019-01-16T13:01:55.992Z,16.30
2019-01-16T13:04:41.668Z,16.20
2019-01-16T13:07:26.021Z,16.20
2019-01-16T13:10:10.611Z,16.30
2019-01-16T13:12:56.682Z,16.20
2019-01-16T13:15:49.852Z,16.20
2019-01-16T13:18:36.966Z,16.30
2019-01-16T13:21:24.642Z,16.20
2019-01-16T13:24:09.534Z,16.30
2019-01-16T13:26:55.423Z,16.20
2019-01-16T13:29:39.801Z,16.20
2019-01-16T13:32:41.677Z,16.30
2019-01-16T13:35:31.811Z,16.20
2019-01-16T13:38:24.761Z,16.20
2019-01-16T13:41:15.472Z,16.20
2019-01-16T13:44:01.204Z,16.20
2019-01-16T13:46:36.133Z,16.20
2019-01-16T13:49:22.303Z,16.20
2019-01-16T13:52:00.888Z,16.20
2019-01-16T13:54:48.107Z,16.20
2019-01-16T13:57:30.048Z,16.20
2019-01-16T14:00:35.666Z,16.20
2019-01-16T14:03:22.600Z,16.20
2019-01-16T14:06:01.607Z,16.20
2019-01-16T14:08:54.422Z,16.20
2019-01-16T14:11:41.432Z,16.20
2019-01-16T14:14:38.858Z,16.20
2019-01-16T14:17:24.341Z,16.20
2019-01-16T14:20:29.589Z,16.20
2019-01-16T14:23:22.228Z,16.20
2019-01-16T14:26:07.644Z,16.20
2019-01-16T14:28:50.868Z,16.20
2019-01-16T14:31:40.685Z,16.20
2019-01-16T14:34:26.252Z,16.20
2019-01-16T14:37:13.445Z,16.20
2019-01-16T14:40:09.308Z,16.20
2019-01-16T14:42:55.300Z,16.20
2019-01-16T14:45:45.235Z,16.20
2019-01-16T14:48:26.748Z,16.20
2019-01-16T14:51:05.986Z,16.20
2019-01-16T14:53:48.259Z,16.20
2019-01-16T14:56:53.945Z,16.20
2019-01-16T14:59:39.391Z,16.20
2019-01-16T15:02:35.763Z,16.20
2019-01-16T15:05:17.761Z,16.20
2019-01-16T15:08:10.745Z,16.20
2019-01-16T15:11:13.340Z,16.20
2019-01-16T15:14:03.315Z,16.20
2019-01-16T15:17:02.776Z,16.20
2019-01-16T15:19:48.529Z,16.20
2019-01-16T15:22:32.691Z,16.20
2019-01-16T15:25:19.953Z,16.20
2019-01-16T15:28:12.628Z,16.20
2019-01-16T15:31:05.605Z,16.20
2019-01-16T15:33:58.599Z,16.20
2019-01-16T15:37:04.177Z,16.10
2019-01-16T15:39:49.829Z,16.20
2019-01-16T15:42:48.796Z,16.20
2019-01-16T15:45:35.174Z,16.10
2019-01-16T15:48:20.820Z,16.10
2019-01-16T15:51:06.419Z,16.10
2019-01-16T15:53:59.372Z,16.20
2019-01-16T15:56:45.169Z,16.10
2019-01-16T15:59:24.549Z,16.10
2019-01-16T16:02:20.276Z,16.10
2019-01-16T16:05:06.124Z,16.10
2019-01-16T16:08:02.213Z,16.20
2019-01-16T16:10:42.043Z,16.20
2019-01-16T16:13:20.623Z,16.10
2019-01-16T16:16:02.523Z,16.20
2019-01-16T16:18:50.172Z,16.10
2019-01-16T16:21:37.242Z,16.10
2019-01-16T16:24:39.423Z,16.10
2019-01-16T16:27:19.747Z,16.10
2019-01-16T16:30:14.341Z,16.10
2019-01-16T16:33:01.433Z,16.10
2019-01-16T16:35:48.416Z,16.10
2019-01-16T16:38:35.518Z,16.10
2019-01-16T16:41:28.337Z,16.10
2019-01-16T16:44:12.056Z,16.20
2019-01-16T16:46:59.343Z,16.10
2019-01-16T16:49:50.000Z,16.10
2019-01-16T16:52:38.462Z,16.10
2019-01-16T16:55:26.180Z,16.10
2019-01-16T16:58:28.307Z,16.10
2019-01-16T17:01:08.629Z,16.10
2019-01-16T17:04:04.782Z,16.10
2019-01-16T17:07:00.934Z,16.20
2019-01-16T17:09:51.731Z,16.10
2019-01-16T17:12:44.977Z,16.10
2019-01-16T17:15:31.519Z,16.10
2019-01-16T17:18:17.221Z,16.10
2019-01-16T17:21:07.161Z,16.10
2019-01-16T17:24:03.461Z,16.10
2019-01-16T17:26:49.239Z,16.10
2019-01-16T17:29:46.503Z,16.10
2019-01-16T17:32:32.397Z,16.10
2019-01-16T17:35:29.404Z,16.10
2019-01-16T17:38:05.208Z,16.10
2019-01-16T17:40:52.120Z,16.10
2019-01-16T17:43:53.683Z,16.00
2019-01-16T17:47:01.809Z,16.10
2019-01-16T17:49:47.966Z,16.10
2019-01-16T17:52:28.176Z,16.10
2019-01-16T17:55:14.109Z,16.10
2019-01-16T17:58:10.464Z,16.10
2019-01-16T18:00:59.062Z,16.10
2019-01-16T18:03:48.988Z,16.10
2019-01-16T18:06:41.620Z,16.10
2019-01-16T18:09:34.922Z,16.10
2019-01-16T18:12:14.192Z,16.10
2019-01-16T18:15:19.524Z,16.10
2019-01-16T18:18:15.731Z,16.10
2019-01-16T18:20:50.674Z,16.00
2019-01-16T18:23:36.315Z,16.00
2019-01-16T18:26:32.745Z,16.10
2019-01-16T18:29:18.256Z,16.10
2019-01-16T18:32:03.870Z,16.10
2019-01-16T18:34:49.787Z,16.00
2019-01-16T18:37:36.837Z,16.00
2019-01-16T18:40:29.181Z,16.10
2019-01-16T18:43:14.684Z,16.10
2019-01-16T18:46:04.747Z,16.00
2019-01-16T18:49:07.425Z,16.00
2019-01-16T18:52:03.816Z,16.00
2019-01-16T18:54:49.325Z,16.10
2019-01-16T18:57:29.728Z,16.10
2019-01-16T19:00:19.448Z,16.00
2019-01-16T19:03:25.136Z,16.00
2019-01-16T19:06:14.921Z,16.00
2019-01-16T19:09:02.381Z,16.00
2019-01-16T19:11:50.914Z,16.00
2019-01-16T19:14:46.716Z,16.00
2019-01-16T19:17:32.477Z,16.00
2019-01-16T19:20:18.343Z,16.00
2019-01-16T19:22:58.052Z,16.00
2019-01-16T19:25:49.181Z,16.10
2019-01-16T19:28:51.133Z,16.00
2019-01-16T19:31:44.082Z,16.00
2019-01-16T19:34:36.887Z,16.00
2019-01-16T19:37:31.244Z,16.00
2019-01-16T19:40:17.767Z,16.00
2019-01-16T19:43:05.019Z,16.00
2019-01-16T19:45:51.775Z,16.00
2019-01-16T19:48:37.689Z,16.00
2019-01-16T19:51:26.695Z,16.00
2019-01-16T19:54:22.609Z,16.00
2019-01-16T19:57:08.365Z,16.00
2019-01-16T19:59:44.771Z,16.00
2019-01-16T20:02:34.651Z,16.00
2019-01-16T20:05:15.920Z,16.00
2019-01-16T20:07:52.999Z,16.00
2019-01-16T20:10:38.267Z,16.00
2019-01-16T20:13:11.268Z,16.00
2019-01-16T20:15:57.138Z,16.00
2019-01-16T20:18:44.324Z,16.00
2019-01-16T20:21:23.826Z,16.00
2019-01-16T20:24:26.164Z,16.00
2019-01-16T20:27:22.275Z,16.00
2019-01-16T20:30:08.074Z,16.00
2019-01-16T20:32:51.561Z,16.00
2019-01-16T20:35:37.656Z,16.00
2019-01-16T20:38:17.351Z,16.00
2019-01-16T20:41:04.451Z,16.00
2019-01-16T20:44:00.633Z,16.00
2019-01-16T20:46:46.095Z,16.00
2019-01-16T20:49:31.884Z,16.00
2019-01-16T20:52:09.518Z,16.00
2019-01-16T20:54:59.616Z,16.00
2019-01-16T20:57:44.920Z,16.00
2019-01-16T21:00:42.569Z,16.00
2019-01-16T21:03:47.870Z,16.00
2019-01-16T21:06:34.977Z,16.00
2019-01-16T21:09:28.052Z,16.00
2019-01-16T21:12:09.739Z,16.00
2019-01-16T21:15:08.817Z,16.00
2019-01-16T21:17:48.081Z,16.00
2019-01-16T21:20:35.303Z,16.00
2019-01-16T21:23:12.495Z,16.00
2019-01-16T21:26:05.939Z,16.00
2019-01-16T21:28:48.609Z,16.00
2019-01-16T21:31:27.423Z,16.00
2019-01-16T21:34:14.585Z,16.00
2019-01-16T21:36:54.057Z,16.00
2019-01-16T21:39:43.915Z,16.00
2019-01-16T21:42:29.508Z,16.00
2019-01-16T21:45:15.279Z,16.00
2019-01-16T21:48:17.610Z,16.00
2019-01-16T21:51:03.207Z,16.00
2019-01-16T21:53:50.606Z,16.00
2019-01-16T21:56:37.808Z,15.90
2019-01-16T21:59:25.028Z,15.90
2019-01-16T22:02:12.457Z,16.00
2019-01-16T22:05:05.216Z,15.90
2019-01-16T22:07:42.926Z,16.00
2019-01-16T22:10:41.960Z,15.90
2019-01-16T22:13:29.109Z,15.90
2019-01-16T22:16:27.997Z,16.00
2019-01-16T22:19:12.444Z,15.90
2019-01-16T22:21:59.675Z,15.90
2019-01-16T22:24:49.834Z,16.00
2019-01-16T22:27:36.898Z,15.90
2019-01-16T22:30:33.097Z,16.00
2019-01-16T22:33:20.289Z,16.00
2019-01-16T22:36:10.133Z,15.90
2019-01-16T22:39:00.085Z,16.00
2019-01-16T22:41:45.823Z,15.90
2019-01-16T22:44:45.007Z,16.00
2019-01-16T22:47:39.315Z,15.90
2019-01-16T22:50:35.860Z,15.90
2019-01-16T22:53:31.847Z,15.90
2019-01-16T22:56:20.383Z,15.90
2019-01-16T22:59:13.679Z,15.90
2019-01-16T23:02:02.181Z,15.90
2019-01-16T23:05:14.941Z,15.90
2019-01-16T23:08:07.599Z,15.90
2019-01-16T23:10:49.234Z,15.90
2019-01-16T23:13:51.401Z,15.90
2019-01-16T23:16:38.616Z,15.90
2019-01-16T23:19:26.748Z,15.90
2019-01-16T23:22:06.109Z,15.90
2019-01-16T23:24:53.167Z,15.90
2019-01-16T23:27:43.196Z,15.90
2019-01-16T23:30:30.779Z,15.90
2019-01-16T23:33:36.292Z,15.90
2019-01-16T23:36:21.909Z,15.90
2019-01-16T23:39:08.891Z,15.90
2019-01-16T23:41:58.226Z,15.90
2019-01-16T23:44:48.319Z,15.90
2019-01-16T23:47:34.119Z,15.90
2019-01-16T23:50:34.291Z,15.90
2019-01-16T23:53:24.683Z,15.90
2019-01-16T23:56:14.279Z,15.90
2019-01-16T23:58:50.259Z,15.90
